sensor_id;sensor_type;location;lat;lon;timestamp;temperature;humidity
28189;DHT22;15471;51.166;4.470;2022-11-18T00:02:02;9.10;99.90
28189;DHT22;15471;51.166;4.470;2022-11-18T00:04:27;9.20;99.90
28189;DHT22;15471;51.166;4.470;2022-11-18T00:06:53;9.10;99.90
28189;DHT22;15471;51.166;4.470;2022-11-18T00:09:19;9.20;99.90
28189;DHT22;15471;51.166;4.470;2022-11-18T00:11:45;9.20;99.90
28189;DHT22;15471;51.166;4.470;2022-11-18T00:14:29;9.30;99.90
28189;DHT22;15471;51.166;4.470;2022-11-18T00:16:55;9.30;99.90
28189;DHT22;15471;51.166;4.470;2022-11-18T00:19:27;9.40;99.90
28189;DHT22;15471;51.166;4.470;2022-11-18T00:21:53;9.50;99.90
28189;DHT22;15471;51.166;4.470;2022-11-18T00:24:20;9.50;99.90
28189;DHT22;15471;51.166;4.470;2022-11-18T00:26:46;9.50;99.90
28189;DHT22;15471;51.166;4.470;2022-11-18T00:29:12;9.50;99.90
28189;DHT22;15471;51.166;4.470;2022-11-18T00:31:38;9.50;99.90
28189;DHT22;15471;51.166;4.470;2022-11-18T00:34:04;9.60;99.90
28189;DHT22;15471;51.166;4.470;2022-11-18T00:36:30;9.60;99.90
28189;DHT22;15471;51.166;4.470;2022-11-18T00:38:56;9.70;99.90
28189;DHT22;15471;51.166;4.470;2022-11-18T00:41:22;9.70;99.90
28189;DHT22;15471;51.166;4.470;2022-11-18T00:43:48;9.60;99.90
28189;DHT22;15471;51.166;4.470;2022-11-18T00:46:14;9.60;99.90
28189;DHT22;15471;51.166;4.470;2022-11-18T00:48:41;9.60;99.90
28189;DHT22;15471;51.166;4.470;2022-11-18T00:53:32;9.60;99.90
28189;DHT22;15471;51.166;4.470;2022-11-18T00:55:58;9.60;99.90
28189;DHT22;15471;51.166;4.470;2022-11-18T00:58:24;9.60;99.90
28189;DHT22;15471;51.166;4.470;2022-11-18T01:00:51;9.60;99.90
28189;DHT22;15471;51.166;4.470;2022-11-18T01:03:17;9.60;99.90
28189;DHT22;15471;51.166;4.470;2022-11-18T01:05:43;9.70;99.90
28189;DHT22;15471;51.166;4.470;2022-11-18T01:08:10;9.70;99.90
28189;DHT22;15471;51.166;4.470;2022-11-18T01:10:37;9.70;99.90
28189;DHT22;15471;51.166;4.470;2022-11-18T01:13:05;9.80;99.90
28189;DHT22;15471;51.166;4.470;2022-11-18T01:15:47;9.80;99.90
28189;DHT22;15471;51.166;4.470;2022-11-18T01:18:14;9.80;99.90
28189;DHT22;15471;51.166;4.470;2022-11-18T01:20:40;9.80;99.90
28189;DHT22;15471;51.166;4.470;2022-11-18T01:23:06;9.80;99.90
28189;DHT22;15471;51.166;4.470;2022-11-18T01:25:31;9.80;99.90
28189;DHT22;15471;51.166;4.470;2022-11-18T01:27:57;9.80;99.90
28189;DHT22;15471;51.166;4.470;2022-11-18T01:30:23;9.80;99.90
28189;DHT22;15471;51.166;4.470;2022-11-18T01:32:48;9.80;99.90
28189;DHT22;15471;51.166;4.470;2022-11-18T01:35:14;9.80;99.90
28189;DHT22;15471;51.166;4.470;2022-11-18T01:37:40;9.70;99.90
28189;DHT22;15471;51.166;4.470;2022-11-18T01:40:08;9.70;99.90
28189;DHT22;15471;51.166;4.470;2022-11-18T01:42:34;9.60;99.90
28189;DHT22;15471;51.166;4.470;2022-11-18T01:47:41;9.50;99.90
28189;DHT22;15471;51.166;4.470;2022-11-18T01:50:10;9.40;99.90
28189;DHT22;15471;51.166;4.470;2022-11-18T01:52:38;9.50;99.90
28189;DHT22;15471;51.166;4.470;2022-11-18T01:55:10;9.40;99.90
28189;DHT22;15471;51.166;4.470;2022-11-18T01:57:38;9.30;99.90
28189;DHT22;15471;51.166;4.470;2022-11-18T02:00:07;9.20;99.90
28189;DHT22;15471;51.166;4.470;2022-11-18T02:02:35;9.20;99.90
28189;DHT22;15471;51.166;4.470;2022-11-18T02:05:04;9.20;99.90
28189;DHT22;15471;51.166;4.470;2022-11-18T02:07:33;9.20;99.90
28189;DHT22;15471;51.166;4.470;2022-11-18T02:10:02;9.10;99.90
28189;DHT22;15471;51.166;4.470;2022-11-18T02:12:29;9.10;99.90
28189;DHT22;15471;51.166;4.470;2022-11-18T02:14:55;9.10;99.90
28189;DHT22;15471;51.166;4.470;2022-11-18T02:25:17;9.00;99.90
28189;DHT22;15471;51.166;4.470;2022-11-18T02:31:01;8.90;99.90
28189;DHT22;15471;51.166;4.470;2022-11-18T02:37:01;8.80;99.90
28189;DHT22;15471;51.166;4.470;2022-11-18T02:39:11;8.80;99.90
28189;DHT22;15471;51.166;4.470;2022-11-18T02:41:41;8.80;99.90
28189;DHT22;15471;51.166;4.470;2022-11-18T02:44:12;8.80;99.90
28189;DHT22;15471;51.166;4.470;2022-11-18T02:46:39;8.80;99.90
28189;DHT22;15471;51.166;4.470;2022-11-18T02:49:13;8.80;99.90
28189;DHT22;15471;51.166;4.470;2022-11-18T02:51:42;8.80;99.90
28189;DHT22;15471;51.166;4.470;2022-11-18T02:54:11;8.70;99.90
28189;DHT22;15471;51.166;4.470;2022-11-18T02:56:38;8.70;99.90
28189;DHT22;15471;51.166;4.470;2022-11-18T02:59:04;8.60;99.90
28189;DHT22;15471;51.166;4.470;2022-11-18T03:01:32;8.60;99.90
28189;DHT22;15471;51.166;4.470;2022-11-18T03:03:58;8.60;99.90
28189;DHT22;15471;51.166;4.470;2022-11-18T03:09:14;8.50;99.90
28189;DHT22;15471;51.166;4.470;2022-11-18T03:16:57;8.50;99.90
28189;DHT22;15471;51.166;4.470;2022-11-18T03:19:43;8.40;99.90
28189;DHT22;15471;51.166;4.470;2022-11-18T03:22:18;8.30;99.90
28189;DHT22;15471;51.166;4.470;2022-11-18T03:25:10;8.30;99.90
28189;DHT22;15471;51.166;4.470;2022-11-18T03:27:52;8.30;99.90
28189;DHT22;15471;51.166;4.470;2022-11-18T03:30:22;8.30;99.90
28189;DHT22;15471;51.166;4.470;2022-11-18T03:32:56;8.20;99.90
28189;DHT22;15471;51.166;4.470;2022-11-18T03:35:25;8.20;99.90
28189;DHT22;15471;51.166;4.470;2022-11-18T03:37:57;8.20;99.90
28189;DHT22;15471;51.166;4.470;2022-11-18T03:40:27;8.20;99.90
28189;DHT22;15471;51.166;4.470;2022-11-18T03:43:04;8.10;99.90
28189;DHT22;15471;51.166;4.470;2022-11-18T03:45:42;8.10;99.90
28189;DHT22;15471;51.166;4.470;2022-11-18T03:48:23;8.10;99.90
28189;DHT22;15471;51.166;4.470;2022-11-18T03:51:04;8.10;99.90
28189;DHT22;15471;51.166;4.470;2022-11-18T03:53:34;8.10;99.90
28189;DHT22;15471;51.166;4.470;2022-11-18T03:56:09;8.00;99.90
28189;DHT22;15471;51.166;4.470;2022-11-18T03:58:41;7.90;99.90
28189;DHT22;15471;51.166;4.470;2022-11-18T04:01:13;7.90;99.90
28189;DHT22;15471;51.166;4.470;2022-11-18T04:03:41;7.90;99.90
28189;DHT22;15471;51.166;4.470;2022-11-18T04:06:15;7.80;99.90
28189;DHT22;15471;51.166;4.470;2022-11-18T04:08:45;7.90;99.90
28189;DHT22;15471;51.166;4.470;2022-11-18T04:11:18;8.00;99.90
28189;DHT22;15471;51.166;4.470;2022-11-18T04:14:06;8.00;99.90
28189;DHT22;15471;51.166;4.470;2022-11-18T04:16:41;7.90;99.90
28189;DHT22;15471;51.166;4.470;2022-11-18T04:19:07;7.90;99.90
28189;DHT22;15471;51.166;4.470;2022-11-18T04:21:33;7.90;99.90
28189;DHT22;15471;51.166;4.470;2022-11-18T04:23:59;7.90;99.90
28189;DHT22;15471;51.166;4.470;2022-11-18T04:26:25;8.00;99.90
28189;DHT22;15471;51.166;4.470;2022-11-18T04:28:51;7.90;99.90
28189;DHT22;15471;51.166;4.470;2022-11-18T04:31:16;7.90;99.90
28189;DHT22;15471;51.166;4.470;2022-11-18T04:33:42;7.90;99.90
28189;DHT22;15471;51.166;4.470;2022-11-18T04:36:08;7.90;99.90
28189;DHT22;15471;51.166;4.470;2022-11-18T04:38:34;8.00;99.90
28189;DHT22;15471;51.166;4.470;2022-11-18T04:40:59;8.00;99.90
28189;DHT22;15471;51.166;4.470;2022-11-18T04:43:25;7.90;99.90
28189;DHT22;15471;51.166;4.470;2022-11-18T04:45:51;8.00;99.90
28189;DHT22;15471;51.166;4.470;2022-11-18T04:48:17;7.90;99.90
28189;DHT22;15471;51.166;4.470;2022-11-18T04:50:43;7.90;99.90
28189;DHT22;15471;51.166;4.470;2022-11-18T04:53:09;7.90;99.90
28189;DHT22;15471;51.166;4.470;2022-11-18T04:55:35;7.90;99.90
28189;DHT22;15471;51.166;4.470;2022-11-18T04:58:02;7.90;99.90
28189;DHT22;15471;51.166;4.470;2022-11-18T05:00:28;7.90;99.90
28189;DHT22;15471;51.166;4.470;2022-11-18T05:02:53;7.90;99.90
28189;DHT22;15471;51.166;4.470;2022-11-18T05:05:19;7.90;99.90
28189;DHT22;15471;51.166;4.470;2022-11-18T05:07:45;7.90;99.90
28189;DHT22;15471;51.166;4.470;2022-11-18T05:10:11;7.90;99.90
28189;DHT22;15471;51.166;4.470;2022-11-18T05:12:36;7.90;99.90
28189;DHT22;15471;51.166;4.470;2022-11-18T05:15:18;7.90;99.90
28189;DHT22;15471;51.166;4.470;2022-11-18T05:17:45;7.90;99.90
28189;DHT22;15471;51.166;4.470;2022-11-18T05:20:11;7.80;99.90
28189;DHT22;15471;51.166;4.470;2022-11-18T05:22:37;7.80;99.90
28189;DHT22;15471;51.166;4.470;2022-11-18T05:25:03;7.80;99.90
28189;DHT22;15471;51.166;4.470;2022-11-18T05:27:29;7.80;99.90
28189;DHT22;15471;51.166;4.470;2022-11-18T05:29:55;7.80;99.90
28189;DHT22;15471;51.166;4.470;2022-11-18T05:32:21;7.70;99.90
28189;DHT22;15471;51.166;4.470;2022-11-18T05:34:46;7.70;99.90
28189;DHT22;15471;51.166;4.470;2022-11-18T05:37:12;7.70;99.90
28189;DHT22;15471;51.166;4.470;2022-11-18T05:39:38;7.80;99.90
28189;DHT22;15471;51.166;4.470;2022-11-18T05:42:04;7.70;99.90
28189;DHT22;15471;51.166;4.470;2022-11-18T05:44:49;7.70;99.90
28189;DHT22;15471;51.166;4.470;2022-11-18T05:47:19;7.70;99.90
28189;DHT22;15471;51.166;4.470;2022-11-18T05:49:45;7.70;99.90
28189;DHT22;15471;51.166;4.470;2022-11-18T05:52:10;7.70;99.90
28189;DHT22;15471;51.166;4.470;2022-11-18T05:54:47;7.70;99.90
28189;DHT22;15471;51.166;4.470;2022-11-18T05:57:14;7.70;99.90
28189;DHT22;15471;51.166;4.470;2022-11-18T05:59:40;7.70;99.90
28189;DHT22;15471;51.166;4.470;2022-11-18T06:02:18;7.60;99.90
28189;DHT22;15471;51.166;4.470;2022-11-18T06:04:49;7.70;99.90
28189;DHT22;15471;51.166;4.470;2022-11-18T06:07:27;7.70;99.90
28189;DHT22;15471;51.166;4.470;2022-11-18T06:09:58;7.70;99.90
28189;DHT22;15471;51.166;4.470;2022-11-18T06:12:27;7.70;99.90
28189;DHT22;15471;51.166;4.470;2022-11-18T06:15:01;7.70;99.90
28189;DHT22;15471;51.166;4.470;2022-11-18T06:17:36;7.80;99.90
28189;DHT22;15471;51.166;4.470;2022-11-18T06:20:05;7.80;99.90
28189;DHT22;15471;51.166;4.470;2022-11-18T06:22:31;7.80;99.90
28189;DHT22;15471;51.166;4.470;2022-11-18T06:24:59;7.90;99.90
28189;DHT22;15471;51.166;4.470;2022-11-18T06:27:25;7.90;99.90
28189;DHT22;15471;51.166;4.470;2022-11-18T06:29:51;7.90;99.90
28189;DHT22;15471;51.166;4.470;2022-11-18T06:32:17;7.90;99.90
28189;DHT22;15471;51.166;4.470;2022-11-18T06:34:42;7.90;99.90
28189;DHT22;15471;51.166;4.470;2022-11-18T06:37:13;7.80;99.90
28189;DHT22;15471;51.166;4.470;2022-11-18T06:39:38;7.90;99.90
28189;DHT22;15471;51.166;4.470;2022-11-18T06:42:04;7.80;99.90
28189;DHT22;15471;51.166;4.470;2022-11-18T06:44:30;7.70;99.90
28189;DHT22;15471;51.166;4.470;2022-11-18T06:46:56;7.70;99.90
28189;DHT22;15471;51.166;4.470;2022-11-18T06:49:25;7.70;99.90
28189;DHT22;15471;51.166;4.470;2022-11-18T06:51:52;7.70;99.90
28189;DHT22;15471;51.166;4.470;2022-11-18T06:54:19;7.60;99.90
28189;DHT22;15471;51.166;4.470;2022-11-18T06:56:45;7.60;99.90
28189;DHT22;15471;51.166;4.470;2022-11-18T06:59:11;7.60;99.90
28189;DHT22;15471;51.166;4.470;2022-11-18T07:01:39;7.60;99.90
28189;DHT22;15471;51.166;4.470;2022-11-18T07:04:08;7.60;99.90
28189;DHT22;15471;51.166;4.470;2022-11-18T07:06:35;7.60;99.90
28189;DHT22;15471;51.166;4.470;2022-11-18T07:09:03;7.60;99.90
28189;DHT22;15471;51.166;4.470;2022-11-18T07:11:29;7.60;99.90
28189;DHT22;15471;51.166;4.470;2022-11-18T07:13:55;7.60;99.90
28189;DHT22;15471;51.166;4.470;2022-11-18T07:16:23;7.60;99.90
28189;DHT22;15471;51.166;4.470;2022-11-18T07:18:50;7.60;99.90
28189;DHT22;15471;51.166;4.470;2022-11-18T07:21:19;7.60;99.90
28189;DHT22;15471;51.166;4.470;2022-11-18T07:23:47;7.70;99.90
28189;DHT22;15471;51.166;4.470;2022-11-18T07:26:13;7.70;99.90
28189;DHT22;15471;51.166;4.470;2022-11-18T07:28:39;7.70;99.90
28189;DHT22;15471;51.166;4.470;2022-11-18T07:31:07;7.70;99.90
28189;DHT22;15471;51.166;4.470;2022-11-18T07:33:35;7.70;99.90
28189;DHT22;15471;51.166;4.470;2022-11-18T07:36:09;7.70;99.90
28189;DHT22;15471;51.166;4.470;2022-11-18T07:38:36;7.80;99.90
28189;DHT22;15471;51.166;4.470;2022-11-18T07:41:06;7.80;99.90
28189;DHT22;15471;51.166;4.470;2022-11-18T07:43:34;7.80;99.90
28189;DHT22;15471;51.166;4.470;2022-11-18T07:48:38;7.90;99.90
28189;DHT22;15471;51.166;4.470;2022-11-18T07:51:04;7.90;99.90
28189;DHT22;15471;51.166;4.470;2022-11-18T07:53:30;7.90;99.90
28189;DHT22;15471;51.166;4.470;2022-11-18T07:55:56;8.00;99.90
28189;DHT22;15471;51.166;4.470;2022-11-18T07:58:22;8.10;99.90
28189;DHT22;15471;51.166;4.470;2022-11-18T08:00:48;8.20;99.90
28189;DHT22;15471;51.166;4.470;2022-11-18T08:03:13;8.30;99.90
28189;DHT22;15471;51.166;4.470;2022-11-18T08:05:39;8.40;99.90
28189;DHT22;15471;51.166;4.470;2022-11-18T08:08:05;8.40;99.90
28189;DHT22;15471;51.166;4.470;2022-11-18T08:10:31;8.60;99.90
28189;DHT22;15471;51.166;4.470;2022-11-18T08:12:57;8.70;99.90
28189;DHT22;15471;51.166;4.470;2022-11-18T08:15:24;8.80;99.90
28189;DHT22;15471;51.166;4.470;2022-11-18T08:17:50;8.90;99.90
28189;DHT22;15471;51.166;4.470;2022-11-18T08:20:15;9.00;99.90
28189;DHT22;15471;51.166;4.470;2022-11-18T08:22:41;9.10;99.90
28189;DHT22;15471;51.166;4.470;2022-11-18T08:25:07;9.00;99.90
28189;DHT22;15471;51.166;4.470;2022-11-18T08:27:33;9.10;99.90
28189;DHT22;15471;51.166;4.470;2022-11-18T08:29:59;9.10;99.90
28189;DHT22;15471;51.166;4.470;2022-11-18T08:32:25;9.10;99.90
28189;DHT22;15471;51.166;4.470;2022-11-18T08:34:51;9.10;99.90
28189;DHT22;15471;51.166;4.470;2022-11-18T08:37:16;9.20;99.90
28189;DHT22;15471;51.166;4.470;2022-11-18T08:39:42;9.20;99.90
28189;DHT22;15471;51.166;4.470;2022-11-18T08:42:09;9.30;99.90
28189;DHT22;15471;51.166;4.470;2022-11-18T08:44:35;9.30;99.90
28189;DHT22;15471;51.166;4.470;2022-11-18T08:47:01;9.40;99.90
28189;DHT22;15471;51.166;4.470;2022-11-18T08:49:27;9.40;99.90
28189;DHT22;15471;51.166;4.470;2022-11-18T08:51:53;9.30;99.90
28189;DHT22;15471;51.166;4.470;2022-11-18T08:54:19;9.40;99.90
28189;DHT22;15471;51.166;4.470;2022-11-18T08:56:45;9.40;99.90
28189;DHT22;15471;51.166;4.470;2022-11-18T08:59:11;9.50;99.90
28189;DHT22;15471;51.166;4.470;2022-11-18T09:01:37;9.60;99.90
28189;DHT22;15471;51.166;4.470;2022-11-18T09:04:05;9.60;99.90
28189;DHT22;15471;51.166;4.470;2022-11-18T09:06:31;9.60;99.90
28189;DHT22;15471;51.166;4.470;2022-11-18T09:08:57;9.70;99.90
28189;DHT22;15471;51.166;4.470;2022-11-18T09:11:24;9.70;99.90
28189;DHT22;15471;51.166;4.470;2022-11-18T09:13:52;9.80;99.90
28189;DHT22;15471;51.166;4.470;2022-11-18T09:16:18;9.80;99.90
28189;DHT22;15471;51.166;4.470;2022-11-18T09:18:44;9.90;99.90
28189;DHT22;15471;51.166;4.470;2022-11-18T09:21:09;10.00;99.90
28189;DHT22;15471;51.166;4.470;2022-11-18T09:23:36;10.20;99.90
28189;DHT22;15471;51.166;4.470;2022-11-18T09:26:05;10.30;99.90
28189;DHT22;15471;51.166;4.470;2022-11-18T09:28:31;10.20;99.90
28189;DHT22;15471;51.166;4.470;2022-11-18T09:30:57;10.20;99.90
28189;DHT22;15471;51.166;4.470;2022-11-18T09:33:23;10.30;99.90
28189;DHT22;15471;51.166;4.470;2022-11-18T09:35:49;10.40;99.90
28189;DHT22;15471;51.166;4.470;2022-11-18T09:38:15;10.50;99.90
28189;DHT22;15471;51.166;4.470;2022-11-18T09:43:27;10.50;99.90
28189;DHT22;15471;51.166;4.470;2022-11-18T09:46:02;10.60;99.90
28189;DHT22;15471;51.166;4.470;2022-11-18T09:48:30;10.60;99.90
28189;DHT22;15471;51.166;4.470;2022-11-18T09:51:37;10.40;99.90
28189;DHT22;15471;51.166;4.470;2022-11-18T09:54:03;10.60;99.90
28189;DHT22;15471;51.166;4.470;2022-11-18T09:56:29;10.60;99.90
28189;DHT22;15471;51.166;4.470;2022-11-18T09:58:55;10.60;99.90
28189;DHT22;15471;51.166;4.470;2022-11-18T10:01:21;10.60;99.90
28189;DHT22;15471;51.166;4.470;2022-11-18T10:03:47;10.60;99.90
28189;DHT22;15471;51.166;4.470;2022-11-18T10:06:23;10.70;99.90
28189;DHT22;15471;51.166;4.470;2022-11-18T10:09:03;10.70;99.90
28189;DHT22;15471;51.166;4.470;2022-11-18T10:11:41;10.80;99.90
28189;DHT22;15471;51.166;4.470;2022-11-18T10:22:31;10.80;99.90
28189;DHT22;15471;51.166;4.470;2022-11-18T10:24:58;10.70;99.90
28189;DHT22;15471;51.166;4.470;2022-11-18T10:27:38;10.70;99.90
28189;DHT22;15471;51.166;4.470;2022-11-18T10:30:21;10.60;99.90
28189;DHT22;15471;51.166;4.470;2022-11-18T10:33:03;10.50;99.90
28189;DHT22;15471;51.166;4.470;2022-11-18T10:35:37;10.50;99.90
28189;DHT22;15471;51.166;4.470;2022-11-18T10:38:06;10.60;99.90
28189;DHT22;15471;51.166;4.470;2022-11-18T10:41:00;10.60;99.90
28189;DHT22;15471;51.166;4.470;2022-11-18T10:46:27;10.70;99.90
28189;DHT22;15471;51.166;4.470;2022-11-18T10:51:46;10.70;99.90
28189;DHT22;15471;51.166;4.470;2022-11-18T10:54:21;10.80;99.90
28189;DHT22;15471;51.166;4.470;2022-11-18T10:59:40;10.70;99.90
28189;DHT22;15471;51.166;4.470;2022-11-18T11:02:37;10.70;99.90
28189;DHT22;15471;51.166;4.470;2022-11-18T11:05:16;10.70;99.90
28189;DHT22;15471;51.166;4.470;2022-11-18T11:07:43;10.70;99.90
28189;DHT22;15471;51.166;4.470;2022-11-18T11:12:43;10.70;99.90
28189;DHT22;15471;51.166;4.470;2022-11-18T11:17:55;10.70;99.90
28189;DHT22;15471;51.166;4.470;2022-11-18T11:20:41;10.70;99.90
28189;DHT22;15471;51.166;4.470;2022-11-18T11:23:16;10.70;99.90
28189;DHT22;15471;51.166;4.470;2022-11-18T11:25:58;10.70;99.90
28189;DHT22;15471;51.166;4.470;2022-11-18T11:31:48;10.70;99.90
28189;DHT22;15471;51.166;4.470;2022-11-18T11:42:34;10.60;99.90
28189;DHT22;15471;51.166;4.470;2022-11-18T11:51:00;10.50;99.90
28189;DHT22;15471;51.166;4.470;2022-11-18T11:57:03;10.40;99.90
28189;DHT22;15471;51.166;4.470;2022-11-18T12:02:28;10.50;99.90
28189;DHT22;15471;51.166;4.470;2022-11-18T12:07:55;10.50;99.90
28189;DHT22;15471;51.166;4.470;2022-11-18T12:10:28;10.60;99.90
28189;DHT22;15471;51.166;4.470;2022-11-18T12:13:35;10.60;99.90
28189;DHT22;15471;51.166;4.470;2022-11-18T12:18:57;10.70;99.90
28189;DHT22;15471;51.166;4.470;2022-11-18T12:24:35;10.70;99.90
28189;DHT22;15471;51.166;4.470;2022-11-18T12:28:01;10.60;99.90
28189;DHT22;15471;51.166;4.470;2022-11-18T12:29:58;10.60;99.90
28189;DHT22;15471;51.166;4.470;2022-11-18T12:32:32;10.60;99.90
28189;DHT22;15471;51.166;4.470;2022-11-18T12:40:10;10.60;99.90
28189;DHT22;15471;51.166;4.470;2022-11-18T12:42:54;10.60;99.90
28189;DHT22;15471;51.166;4.470;2022-11-18T12:48:31;10.70;99.90
28189;DHT22;15471;51.166;4.470;2022-11-18T12:50:59;10.70;99.90
28189;DHT22;15471;51.166;4.470;2022-11-18T12:53:33;10.80;99.90
28189;DHT22;15471;51.166;4.470;2022-11-18T12:55:59;10.80;99.90
28189;DHT22;15471;51.166;4.470;2022-11-18T12:58:34;10.80;99.90
28189;DHT22;15471;51.166;4.470;2022-11-18T13:01:08;10.90;99.90
28189;DHT22;15471;51.166;4.470;2022-11-18T13:03:35;10.90;99.90
28189;DHT22;15471;51.166;4.470;2022-11-18T13:06:11;10.90;99.90
28189;DHT22;15471;51.166;4.470;2022-11-18T13:08:40;10.80;99.90
28189;DHT22;15471;51.166;4.470;2022-11-18T13:11:16;10.80;99.90
28189;DHT22;15471;51.166;4.470;2022-11-18T13:14:03;10.80;99.90
28189;DHT22;15471;51.166;4.470;2022-11-18T13:16:48;10.70;99.90
28189;DHT22;15471;51.166;4.470;2022-11-18T13:19:32;10.60;99.90
28189;DHT22;15471;51.166;4.470;2022-11-18T13:21:59;10.60;99.90
28189;DHT22;15471;51.166;4.470;2022-11-18T13:24:51;10.60;99.90
28189;DHT22;15471;51.166;4.470;2022-11-18T13:29:52;10.70;99.90
28189;DHT22;15471;51.166;4.470;2022-11-18T13:32:24;10.70;99.90
28189;DHT22;15471;51.166;4.470;2022-11-18T13:34:54;10.60;99.90
28189;DHT22;15471;51.166;4.470;2022-11-18T13:37:31;10.60;99.90
28189;DHT22;15471;51.166;4.470;2022-11-18T13:39:58;10.60;99.90
28189;DHT22;15471;51.166;4.470;2022-11-18T13:42:29;10.60;99.90
28189;DHT22;15471;51.166;4.470;2022-11-18T13:45:00;10.50;99.90
28189;DHT22;15471;51.166;4.470;2022-11-18T13:50:32;10.60;99.90
28189;DHT22;15471;51.166;4.470;2022-11-18T13:55:58;10.50;99.90
28189;DHT22;15471;51.166;4.470;2022-11-18T13:58:43;10.50;99.90
28189;DHT22;15471;51.166;4.470;2022-11-18T14:01:18;10.40;99.90
28189;DHT22;15471;51.166;4.470;2022-11-18T14:07:28;10.40;99.90
28189;DHT22;15471;51.166;4.470;2022-11-18T14:10:02;10.40;99.90
28189;DHT22;15471;51.166;4.470;2022-11-18T14:12:31;10.40;99.90
28189;DHT22;15471;51.166;4.470;2022-11-18T14:20:55;10.50;99.90
28189;DHT22;15471;51.166;4.470;2022-11-18T14:23:43;10.40;99.90
28189;DHT22;15471;51.166;4.470;2022-11-18T14:26:09;10.40;99.90
28189;DHT22;15471;51.166;4.470;2022-11-18T14:28:36;10.40;99.90
28189;DHT22;15471;51.166;4.470;2022-11-18T14:34:16;10.40;99.90
28189;DHT22;15471;51.166;4.470;2022-11-18T14:36:46;10.30;99.90
28189;DHT22;15471;51.166;4.470;2022-11-18T14:39:28;10.30;99.90
28189;DHT22;15471;51.166;4.470;2022-11-18T14:41:55;10.30;99.90
28189;DHT22;15471;51.166;4.470;2022-11-18T14:44:22;10.30;99.90
28189;DHT22;15471;51.166;4.470;2022-11-18T14:46:51;10.30;99.90
28189;DHT22;15471;51.166;4.470;2022-11-18T14:49:22;10.40;99.90
28189;DHT22;15471;51.166;4.470;2022-11-18T14:51:49;10.50;99.90
28189;DHT22;15471;51.166;4.470;2022-11-18T14:54:17;10.40;99.90
28189;DHT22;15471;51.166;4.470;2022-11-18T14:56:44;10.40;99.90
28189;DHT22;15471;51.166;4.470;2022-11-18T14:59:15;10.40;99.90
28189;DHT22;15471;51.166;4.470;2022-11-18T15:01:42;10.40;99.90
28189;DHT22;15471;51.166;4.470;2022-11-18T15:04:08;10.40;99.90
28189;DHT22;15471;51.166;4.470;2022-11-18T15:06:34;10.50;99.90
28189;DHT22;15471;51.166;4.470;2022-11-18T15:09:01;10.50;99.90
28189;DHT22;15471;51.166;4.470;2022-11-18T15:11:27;10.40;99.90
28189;DHT22;15471;51.166;4.470;2022-11-18T15:13:52;10.50;99.90
28189;DHT22;15471;51.166;4.470;2022-11-18T15:16:23;10.50;99.90
28189;DHT22;15471;51.166;4.470;2022-11-18T15:18:55;10.40;99.90
28189;DHT22;15471;51.166;4.470;2022-11-18T15:21:22;10.40;99.90
28189;DHT22;15471;51.166;4.470;2022-11-18T15:23:48;10.40;99.90
28189;DHT22;15471;51.166;4.470;2022-11-18T15:26:21;10.50;99.90
28189;DHT22;15471;51.166;4.470;2022-11-18T15:28:49;10.40;99.90
28189;DHT22;15471;51.166;4.470;2022-11-18T15:31:16;10.50;99.90
28189;DHT22;15471;51.166;4.470;2022-11-18T15:33:42;10.40;99.90
28189;DHT22;15471;51.166;4.470;2022-11-18T15:36:13;10.40;99.90
28189;DHT22;15471;51.166;4.470;2022-11-18T15:38:40;10.40;99.90
28189;DHT22;15471;51.166;4.470;2022-11-18T15:41:14;10.40;99.90
28189;DHT22;15471;51.166;4.470;2022-11-18T15:43:40;10.30;99.90
28189;DHT22;15471;51.166;4.470;2022-11-18T15:46:06;10.30;99.90
28189;DHT22;15471;51.166;4.470;2022-11-18T15:48:32;10.30;99.90
28189;DHT22;15471;51.166;4.470;2022-11-18T15:50:58;10.30;99.90
28189;DHT22;15471;51.166;4.470;2022-11-18T15:53:24;10.30;99.90
28189;DHT22;15471;51.166;4.470;2022-11-18T15:55:49;10.30;99.90
28189;DHT22;15471;51.166;4.470;2022-11-18T15:58:15;10.30;99.90
28189;DHT22;15471;51.166;4.470;2022-11-18T16:00:41;10.30;99.90
28189;DHT22;15471;51.166;4.470;2022-11-18T16:03:06;10.30;99.90
28189;DHT22;15471;51.166;4.470;2022-11-18T16:05:32;10.30;99.90
28189;DHT22;15471;51.166;4.470;2022-11-18T16:07:59;10.40;99.90
28189;DHT22;15471;51.166;4.470;2022-11-18T16:10:26;10.40;99.90
28189;DHT22;15471;51.166;4.470;2022-11-18T16:13:12;10.40;99.90
28189;DHT22;15471;51.166;4.470;2022-11-18T16:15:38;10.40;99.90
28189;DHT22;15471;51.166;4.470;2022-11-18T16:18:14;10.40;99.90
28189;DHT22;15471;51.166;4.470;2022-11-18T16:20:40;10.40;99.90
28189;DHT22;15471;51.166;4.470;2022-11-18T16:23:06;10.40;99.90
28189;DHT22;15471;51.166;4.470;2022-11-18T16:25:32;10.40;99.90
28189;DHT22;15471;51.166;4.470;2022-11-18T16:27:58;10.40;99.90
28189;DHT22;15471;51.166;4.470;2022-11-18T16:30:24;10.30;99.90
28189;DHT22;15471;51.166;4.470;2022-11-18T16:33:07;10.30;99.90
28189;DHT22;15471;51.166;4.470;2022-11-18T16:35:33;10.30;99.90
28189;DHT22;15471;51.166;4.470;2022-11-18T16:37:59;10.40;99.90
28189;DHT22;15471;51.166;4.470;2022-11-18T16:40:25;10.40;99.90
28189;DHT22;15471;51.166;4.470;2022-11-18T16:42:51;10.30;99.90
28189;DHT22;15471;51.166;4.470;2022-11-18T16:45:17;10.30;99.90
28189;DHT22;15471;51.166;4.470;2022-11-18T16:47:43;10.30;99.90
28189;DHT22;15471;51.166;4.470;2022-11-18T16:50:10;10.20;99.90
28189;DHT22;15471;51.166;4.470;2022-11-18T16:52:35;10.20;99.90
28189;DHT22;15471;51.166;4.470;2022-11-18T16:55:01;10.10;99.90
28189;DHT22;15471;51.166;4.470;2022-11-18T16:57:27;10.00;99.90
28189;DHT22;15471;51.166;4.470;2022-11-18T16:59:53;10.00;99.90
28189;DHT22;15471;51.166;4.470;2022-11-18T17:02:19;10.00;99.90
28189;DHT22;15471;51.166;4.470;2022-11-18T17:04:45;10.00;99.90
28189;DHT22;15471;51.166;4.470;2022-11-18T17:07:11;10.10;99.90
28189;DHT22;15471;51.166;4.470;2022-11-18T17:09:37;10.00;99.90
28189;DHT22;15471;51.166;4.470;2022-11-18T17:12:03;9.90;99.90
28189;DHT22;15471;51.166;4.470;2022-11-18T17:14:30;9.90;99.90
28189;DHT22;15471;51.166;4.470;2022-11-18T17:16:56;10.00;99.90
28189;DHT22;15471;51.166;4.470;2022-11-18T17:19:23;9.90;99.90
28189;DHT22;15471;51.166;4.470;2022-11-18T17:21:52;9.90;99.90
28189;DHT22;15471;51.166;4.470;2022-11-18T17:24:19;10.00;99.90
28189;DHT22;15471;51.166;4.470;2022-11-18T17:26:45;10.00;99.90
28189;DHT22;15471;51.166;4.470;2022-11-18T17:29:13;9.90;99.90
28189;DHT22;15471;51.166;4.470;2022-11-18T17:31:39;9.90;99.90
28189;DHT22;15471;51.166;4.470;2022-11-18T17:34:12;10.00;99.90
28189;DHT22;15471;51.166;4.470;2022-11-18T17:36:38;10.10;99.90
28189;DHT22;15471;51.166;4.470;2022-11-18T17:39:05;10.10;99.90
28189;DHT22;15471;51.166;4.470;2022-11-18T17:41:31;10.10;99.90
28189;DHT22;15471;51.166;4.470;2022-11-18T17:44:16;10.10;99.90
28189;DHT22;15471;51.166;4.470;2022-11-18T17:46:43;10.10;99.90
28189;DHT22;15471;51.166;4.470;2022-11-18T17:49:14;10.10;99.90
28189;DHT22;15471;51.166;4.470;2022-11-18T17:51:41;10.10;99.90